sensor_id;sensor_type;location;lat;lon;timestamp;P1;durP1;ratioP1;P2;durP2;ratioP2
75858;SDS011;64504;51.308;8.620;2023-02-01T00:01:30;21.52;;;8.20;;
75858;SDS011;64504;51.308;8.620;2023-02-01T00:03:55;22.95;;;10.20;;
75858;SDS011;64504;51.308;8.620;2023-02-01T00:06:21;29.05;;;10.48;;
75858;SDS011;64504;51.308;8.620;2023-02-01T00:08:46;24.98;;;9.18;;
75858;SDS011;64504;51.308;8.620;2023-02-01T00:11:12;21.63;;;9.10;;
75858;SDS011;64504;51.308;8.620;2023-02-01T00:13:39;24.35;;;9.23;;
75858;SDS011;64504;51.308;8.620;2023-02-01T00:16:09;17.98;;;10.20;;
75858;SDS011;64504;51.308;8.620;2023-02-01T00:18:37;25.42;;;8.60;;
75858;SDS011;64504;51.308;8.620;2023-02-01T00:21:02;24.98;;;8.45;;
75858;SDS011;64504;51.308;8.620;2023-02-01T00:23:31;26.67;;;9.60;;
75858;SDS011;64504;51.308;8.620;2023-02-01T00:25:59;21.55;;;7.13;;
75858;SDS011;64504;51.308;8.620;2023-02-01T00:28:28;17.63;;;8.60;;
75858;SDS011;64504;51.308;8.620;2023-02-01T00:31:01;14.70;;;7.85;;
75858;SDS011;64504;51.308;8.620;2023-02-01T00:33:28;21.20;;;8.82;;
75858;SDS011;64504;51.308;8.620;2023-02-01T00:35:58;18.33;;;6.95;;
75858;SDS011;64504;51.308;8.620;2023-02-01T00:38:24;21.70;;;9.20;;
75858;SDS011;64504;51.308;8.620;2023-02-01T00:40:51;22.90;;;7.88;;
75858;SDS011;64504;51.308;8.620;2023-02-01T00:43:16;26.88;;;10.07;;
75858;SDS011;64504;51.308;8.620;2023-02-01T00:45:41;28.60;;;9.05;;
75858;SDS011;64504;51.308;8.620;2023-02-01T00:48:07;19.30;;;9.27;;
75858;SDS011;64504;51.308;8.620;2023-02-01T00:50:33;20.27;;;7.40;;
75858;SDS011;64504;51.308;8.620;2023-02-01T00:52:58;14.35;;;8.35;;
75858;SDS011;64504;51.308;8.620;2023-02-01T00:55:24;14.85;;;7.47;;
75858;SDS011;64504;51.308;8.620;2023-02-01T00:57:50;22.73;;;8.00;;
75858;SDS011;64504;51.308;8.620;2023-02-01T01:00:15;19.83;;;8.27;;
75858;SDS011;64504;51.308;8.620;2023-02-01T01:02:42;22.38;;;7.50;;
75858;SDS011;64504;51.308;8.620;2023-02-01T01:05:07;10.38;;;7.43;;
75858;SDS011;64504;51.308;8.620;2023-02-01T01:07:33;14.55;;;7.95;;
75858;SDS011;64504;51.308;8.620;2023-02-01T01:09:58;20.25;;;7.20;;
75858;SDS011;64504;51.308;8.620;2023-02-01T01:12:23;13.73;;;8.32;;
75858;SDS011;64504;51.308;8.620;2023-02-01T01:14:49;16.40;;;8.85;;
75858;SDS011;64504;51.308;8.620;2023-02-01T01:17:14;17.98;;;7.80;;
75858;SDS011;64504;51.308;8.620;2023-02-01T01:19:40;23.55;;;7.55;;
75858;SDS011;64504;51.308;8.620;2023-02-01T01:22:05;28.48;;;7.80;;
75858;SDS011;64504;51.308;8.620;2023-02-01T01:24:31;17.70;;;8.82;;
75858;SDS011;64504;51.308;8.620;2023-02-01T01:26:57;21.27;;;9.40;;
75858;SDS011;64504;51.308;8.620;2023-02-01T01:29:22;19.70;;;10.55;;
75858;SDS011;64504;51.308;8.620;2023-02-01T01:31:48;13.63;;;8.43;;
75858;SDS011;64504;51.308;8.620;2023-02-01T01:34:13;13.85;;;7.53;;
75858;SDS011;64504;51.308;8.620;2023-02-01T01:36:38;21.13;;;9.95;;
75858;SDS011;64504;51.308;8.620;2023-02-01T01:39:04;17.80;;;7.72;;
75858;SDS011;64504;51.308;8.620;2023-02-01T01:41:31;17.85;;;8.25;;
75858;SDS011;64504;51.308;8.620;2023-02-01T01:43:58;14.95;;;8.63;;
75858;SDS011;64504;51.308;8.620;2023-02-01T01:48:52;22.50;;;8.07;;
75858;SDS011;64504;51.308;8.620;2023-02-01T01:51:22;22.15;;;9.60;;
75858;SDS011;64504;51.308;8.620;2023-02-01T01:53:53;19.73;;;9.88;;
75858;SDS011;64504;51.308;8.620;2023-02-01T01:56:23;19.38;;;8.38;;
75858;SDS011;64504;51.308;8.620;2023-02-01T01:58:49;14.77;;;7.40;;
75858;SDS011;64504;51.308;8.620;2023-02-01T02:01:15;23.23;;;8.85;;
75858;SDS011;64504;51.308;8.620;2023-02-01T02:03:44;7.97;;;6.03;;
75858;SDS011;64504;51.308;8.620;2023-02-01T02:06:59;11.75;;;7.75;;
75858;SDS011;64504;51.308;8.620;2023-02-01T02:09:20;11.50;;;6.40;;
75858;SDS011;64504;51.308;8.620;2023-02-01T02:11:46;14.95;;;7.10;;
75858;SDS011;64504;51.308;8.620;2023-02-01T02:14:13;24.55;;;7.60;;
75858;SDS011;64504;51.308;8.620;2023-02-01T02:41:33;12.25;;;5.80;;
75858;SDS011;64504;51.308;8.620;2023-02-01T02:44:24;11.30;;;5.45;;
75858;SDS011;64504;51.308;8.620;2023-02-01T02:47:33;21.17;;;6.47;;
75858;SDS011;64504;51.308;8.620;2023-02-01T02:50:49;9.68;;;5.18;;
75858;SDS011;64504;51.308;8.620;2023-02-01T02:53:17;14.27;;;6.28;;
75858;SDS011;64504;51.308;8.620;2023-02-01T02:56:06;20.73;;;6.32;;
75858;SDS011;64504;51.308;8.620;2023-02-01T02:58:50;13.52;;;6.20;;
75858;SDS011;64504;51.308;8.620;2023-02-01T03:01:35;21.17;;;4.63;;
75858;SDS011;64504;51.308;8.620;2023-02-01T03:04:20;13.40;;;5.10;;
75858;SDS011;64504;51.308;8.620;2023-02-01T03:06:46;20.58;;;6.63;;
75858;SDS011;64504;51.308;8.620;2023-02-01T03:09:54;15.35;;;4.88;;
75858;SDS011;64504;51.308;8.620;2023-02-01T03:12:01;25.30;;;6.55;;
75858;SDS011;64504;51.308;8.620;2023-02-01T03:14:50;16.63;;;5.15;;
75858;SDS011;64504;51.308;8.620;2023-02-01T03:17:25;13.13;;;5.45;;
75858;SDS011;64504;51.308;8.620;2023-02-01T03:19:56;18.67;;;6.32;;
75858;SDS011;64504;51.308;8.620;2023-02-01T03:22:24;10.20;;;5.38;;
75858;SDS011;64504;51.308;8.620;2023-02-01T03:25:01;16.88;;;5.38;;
75858;SDS011;64504;51.308;8.620;2023-02-01T03:27:37;24.77;;;7.60;;
75858;SDS011;64504;51.308;8.620;2023-02-01T03:32:43;13.50;;;5.72;;
75858;SDS011;64504;51.308;8.620;2023-02-01T03:40:39;19.80;;;5.35;;
75858;SDS011;64504;51.308;8.620;2023-02-01T03:43:06;26.33;;;5.95;;
75858;SDS011;64504;51.308;8.620;2023-02-01T03:45:36;15.27;;;5.40;;
75858;SDS011;64504;51.308;8.620;2023-02-01T03:48:06;8.52;;;5.38;;
75858;SDS011;64504;51.308;8.620;2023-02-01T03:50:32;14.20;;;7.65;;
75858;SDS011;64504;51.308;8.620;2023-02-01T03:53:01;24.15;;;7.28;;
75858;SDS011;64504;51.308;8.620;2023-02-01T03:55:28;26.73;;;8.55;;
75858;SDS011;64504;51.308;8.620;2023-02-01T03:57:57;17.30;;;7.07;;
75858;SDS011;64504;51.308;8.620;2023-02-01T04:00:33;14.68;;;8.85;;
75858;SDS011;64504;51.308;8.620;2023-02-01T04:02:59;10.32;;;7.18;;
75858;SDS011;64504;51.308;8.620;2023-02-01T04:05:26;12.32;;;5.95;;
75858;SDS011;64504;51.308;8.620;2023-02-01T04:07:51;21.27;;;8.10;;
75858;SDS011;64504;51.308;8.620;2023-02-01T04:10:17;11.48;;;6.25;;
75858;SDS011;64504;51.308;8.620;2023-02-01T04:12:44;11.95;;;6.13;;
75858;SDS011;64504;51.308;8.620;2023-02-01T04:15:10;10.95;;;7.18;;
75858;SDS011;64504;51.308;8.620;2023-02-01T04:17:35;13.18;;;7.38;;
75858;SDS011;64504;51.308;8.620;2023-02-01T04:20:03;15.80;;;6.53;;
75858;SDS011;64504;51.308;8.620;2023-02-01T04:22:29;11.23;;;6.07;;
75858;SDS011;64504;51.308;8.620;2023-02-01T04:24:55;14.63;;;6.03;;
75858;SDS011;64504;51.308;8.620;2023-02-01T04:27:21;12.77;;;6.90;;
75858;SDS011;64504;51.308;8.620;2023-02-01T04:29:47;12.52;;;5.22;;
75858;SDS011;64504;51.308;8.620;2023-02-01T04:32:14;13.38;;;6.07;;
75858;SDS011;64504;51.308;8.620;2023-02-01T04:34:41;12.60;;;5.38;;
75858;SDS011;64504;51.308;8.620;2023-02-01T04:37:08;9.50;;;5.70;;
75858;SDS011;64504;51.308;8.620;2023-02-01T04:39:35;15.88;;;6.18;;
75858;SDS011;64504;51.308;8.620;2023-02-01T04:42:00;10.15;;;4.35;;
75858;SDS011;64504;51.308;8.620;2023-02-01T04:44:26;14.05;;;5.10;;
75858;SDS011;64504;51.308;8.620;2023-02-01T04:46:51;20.48;;;6.72;;
75858;SDS011;64504;51.308;8.620;2023-02-01T04:49:17;22.23;;;6.65;;
75858;SDS011;64504;51.308;8.620;2023-02-01T04:51:43;14.32;;;4.85;;
75858;SDS011;64504;51.308;8.620;2023-02-01T04:54:11;19.42;;;5.95;;
75858;SDS011;64504;51.308;8.620;2023-02-01T04:56:37;4.65;;;3.85;;
75858;SDS011;64504;51.308;8.620;2023-02-01T04:59:03;14.95;;;6.40;;
75858;SDS011;64504;51.308;8.620;2023-02-01T05:01:29;15.43;;;6.30;;
75858;SDS011;64504;51.308;8.620;2023-02-01T05:03:54;12.18;;;4.72;;
75858;SDS011;64504;51.308;8.620;2023-02-01T05:06:20;17.52;;;5.40;;
75858;SDS011;64504;51.308;8.620;2023-02-01T05:08:46;8.93;;;4.68;;
75858;SDS011;64504;51.308;8.620;2023-02-01T05:11:11;5.25;;;3.63;;
75858;SDS011;64504;51.308;8.620;2023-02-01T05:13:57;12.05;;;5.43;;
75858;SDS011;64504;51.308;8.620;2023-02-01T05:16:23;10.55;;;4.70;;
75858;SDS011;64504;51.308;8.620;2023-02-01T05:18:49;13.40;;;4.65;;
75858;SDS011;64504;51.308;8.620;2023-02-01T05:21:14;5.07;;;3.72;;
75858;SDS011;64504;51.308;8.620;2023-02-01T05:23:40;8.77;;;4.15;;
75858;SDS011;64504;51.308;8.620;2023-02-01T05:26:24;11.23;;;4.63;;
75858;SDS011;64504;51.308;8.620;2023-02-01T05:28:50;21.90;;;4.72;;
75858;SDS011;64504;51.308;8.620;2023-02-01T05:31:15;25.60;;;4.53;;
75858;SDS011;64504;51.308;8.620;2023-02-01T05:33:41;10.70;;;4.05;;
75858;SDS011;64504;51.308;8.620;2023-02-01T05:36:06;3.50;;;3.20;;
75858;SDS011;64504;51.308;8.620;2023-02-01T05:38:32;17.77;;;4.22;;
75858;SDS011;64504;51.308;8.620;2023-02-01T05:40:57;1.02;;;1.00;;
75858;SDS011;64504;51.308;8.620;2023-02-01T05:43:23;20.17;;;4.53;;
75858;SDS011;64504;51.308;8.620;2023-02-01T05:45:48;14.45;;;4.32;;
75858;SDS011;64504;51.308;8.620;2023-02-01T05:48:15;23.38;;;5.25;;
75858;SDS011;64504;51.308;8.620;2023-02-01T05:50:40;6.50;;;3.40;;
75858;SDS011;64504;51.308;8.620;2023-02-01T05:53:05;11.98;;;4.63;;
75858;SDS011;64504;51.308;8.620;2023-02-01T05:55:31;8.75;;;4.85;;
75858;SDS011;64504;51.308;8.620;2023-02-01T05:57:58;9.00;;;4.28;;
75858;SDS011;64504;51.308;8.620;2023-02-01T06:00:23;12.90;;;5.80;;
75858;SDS011;64504;51.308;8.620;2023-02-01T06:02:49;15.93;;;4.65;;
75858;SDS011;64504;51.308;8.620;2023-02-01T06:05:14;12.25;;;6.55;;
75858;SDS011;64504;51.308;8.620;2023-02-01T06:07:39;21.20;;;5.97;;
75858;SDS011;64504;51.308;8.620;2023-02-01T06:10:05;17.67;;;6.57;;
75858;SDS011;64504;51.308;8.620;2023-02-01T06:12:31;14.73;;;7.57;;
75858;SDS011;64504;51.308;8.620;2023-02-01T06:14:57;22.75;;;6.30;;
75858;SDS011;64504;51.308;8.620;2023-02-01T06:17:23;26.00;;;6.95;;
75858;SDS011;64504;51.308;8.620;2023-02-01T06:19:49;24.98;;;6.45;;
75858;SDS011;64504;51.308;8.620;2023-02-01T06:22:14;9.80;;;8.27;;
75858;SDS011;64504;51.308;8.620;2023-02-01T06:24:40;24.13;;;7.05;;
75858;SDS011;64504;51.308;8.620;2023-02-01T06:27:06;16.17;;;6.00;;
75858;SDS011;64504;51.308;8.620;2023-02-01T06:29:32;13.80;;;9.13;;
75858;SDS011;64504;51.308;8.620;2023-02-01T06:31:58;10.02;;;6.00;;
75858;SDS011;64504;51.308;8.620;2023-02-01T06:34:23;18.55;;;7.00;;
75858;SDS011;64504;51.308;8.620;2023-02-01T06:36:49;9.80;;;6.63;;
75858;SDS011;64504;51.308;8.620;2023-02-01T06:39:15;20.08;;;6.10;;
75858;SDS011;64504;51.308;8.620;2023-02-01T06:41:41;9.25;;;6.68;;
75858;SDS011;64504;51.308;8.620;2023-02-01T06:44:08;10.60;;;7.05;;
75858;SDS011;64504;51.308;8.620;2023-02-01T06:46:33;15.70;;;6.65;;
75858;SDS011;64504;51.308;8.620;2023-02-01T06:48:59;18.23;;;6.80;;
75858;SDS011;64504;51.308;8.620;2023-02-01T06:51:25;17.27;;;7.25;;
75858;SDS011;64504;51.308;8.620;2023-02-01T06:53:52;12.38;;;6.32;;
75858;SDS011;64504;51.308;8.620;2023-02-01T06:56:17;20.25;;;7.90;;
75858;SDS011;64504;51.308;8.620;2023-02-01T06:58:43;19.13;;;7.25;;
75858;SDS011;64504;51.308;8.620;2023-02-01T07:01:09;10.38;;;7.28;;
75858;SDS011;64504;51.308;8.620;2023-02-01T07:03:35;6.38;;;5.47;;
75858;SDS011;64504;51.308;8.620;2023-02-01T07:06:01;23.30;;;6.70;;
75858;SDS011;64504;51.308;8.620;2023-02-01T07:08:27;12.25;;;7.30;;
75858;SDS011;64504;51.308;8.620;2023-02-01T07:10:53;9.07;;;5.82;;
75858;SDS011;64504;51.308;8.620;2023-02-01T07:13:18;10.93;;;4.50;;
75858;SDS011;64504;51.308;8.620;2023-02-01T07:15:44;8.98;;;6.38;;
75858;SDS011;64504;51.308;8.620;2023-02-01T07:18:13;7.53;;;5.65;;
75858;SDS011;64504;51.308;8.620;2023-02-01T07:20:39;5.63;;;5.05;;
75858;SDS011;64504;51.308;8.620;2023-02-01T07:23:05;15.55;;;6.55;;
75858;SDS011;64504;51.308;8.620;2023-02-01T07:25:31;13.85;;;7.57;;
75858;SDS011;64504;51.308;8.620;2023-02-01T07:27:57;11.18;;;6.00;;
75858;SDS011;64504;51.308;8.620;2023-02-01T07:30:22;13.75;;;6.40;;
75858;SDS011;64504;51.308;8.620;2023-02-01T07:32:48;9.65;;;5.05;;
75858;SDS011;64504;51.308;8.620;2023-02-01T07:35:13;9.13;;;5.72;;
75858;SDS011;64504;51.308;8.620;2023-02-01T07:37:39;13.20;;;6.15;;
75858;SDS011;64504;51.308;8.620;2023-02-01T07:40:05;6.00;;;5.05;;
75858;SDS011;64504;51.308;8.620;2023-02-01T07:42:30;13.68;;;6.20;;
75858;SDS011;64504;51.308;8.620;2023-02-01T07:44:56;28.95;;;7.10;;
75858;SDS011;64504;51.308;8.620;2023-02-01T07:47:22;11.20;;;6.57;;
75858;SDS011;64504;51.308;8.620;2023-02-01T07:49:47;8.73;;;5.70;;
75858;SDS011;64504;51.308;8.620;2023-02-01T07:52:13;15.18;;;5.55;;
75858;SDS011;64504;51.308;8.620;2023-02-01T07:54:40;11.55;;;6.20;;
75858;SDS011;64504;51.308;8.620;2023-02-01T07:57:06;21.45;;;7.38;;
75858;SDS011;64504;51.308;8.620;2023-02-01T07:59:34;10.43;;;6.47;;
75858;SDS011;64504;51.308;8.620;2023-02-01T08:02:00;17.15;;;6.75;;
75858;SDS011;64504;51.308;8.620;2023-02-01T08:04:26;10.15;;;6.38;;
75858;SDS011;64504;51.308;8.620;2023-02-01T08:06:51;12.75;;;6.32;;
75858;SDS011;64504;51.308;8.620;2023-02-01T08:09:17;9.90;;;4.72;;
75858;SDS011;64504;51.308;8.620;2023-02-01T08:11:42;10.82;;;6.70;;
75858;SDS011;64504;51.308;8.620;2023-02-01T08:14:08;10.60;;;5.85;;
75858;SDS011;64504;51.308;8.620;2023-02-01T08:16:33;11.82;;;5.78;;
75858;SDS011;64504;51.308;8.620;2023-02-01T08:19:00;10.20;;;6.03;;
75858;SDS011;64504;51.308;8.620;2023-02-01T08:21:26;12.05;;;5.88;;
75858;SDS011;64504;51.308;8.620;2023-02-01T08:24:01;24.75;;;7.68;;
75858;SDS011;64504;51.308;8.620;2023-02-01T08:26:28;15.27;;;8.10;;
75858;SDS011;64504;51.308;8.620;2023-02-01T08:28:54;11.38;;;6.70;;
75858;SDS011;64504;51.308;8.620;2023-02-01T08:31:22;6.03;;;5.40;;
75858;SDS011;64504;51.308;8.620;2023-02-01T08:33:49;10.05;;;6.05;;
75858;SDS011;64504;51.308;8.620;2023-02-01T08:36:17;11.20;;;6.22;;
75858;SDS011;64504;51.308;8.620;2023-02-01T08:38:43;7.47;;;5.45;;
75858;SDS011;64504;51.308;8.620;2023-02-01T08:41:09;8.27;;;5.38;;
75858;SDS011;64504;51.308;8.620;2023-02-01T08:43:37;11.02;;;6.40;;
75858;SDS011;64504;51.308;8.620;2023-02-01T08:46:03;16.40;;;7.20;;
75858;SDS011;64504;51.308;8.620;2023-02-01T08:48:28;13.25;;;6.95;;
75858;SDS011;64504;51.308;8.620;2023-02-01T08:50:55;12.10;;;6.65;;
75858;SDS011;64504;51.308;8.620;2023-02-01T08:53:21;10.95;;;6.30;;
75858;SDS011;64504;51.308;8.620;2023-02-01T08:55:47;24.42;;;12.68;;
75858;SDS011;64504;51.308;8.620;2023-02-01T08:58:12;13.85;;;6.43;;
75858;SDS011;64504;51.308;8.620;2023-02-01T09:00:39;13.60;;;7.05;;
75858;SDS011;64504;51.308;8.620;2023-02-01T09:03:09;9.13;;;5.53;;
75858;SDS011;64504;51.308;8.620;2023-02-01T09:05:35;13.43;;;6.10;;
75858;SDS011;64504;51.308;8.620;2023-02-01T09:08:01;11.35;;;6.75;;
75858;SDS011;64504;51.308;8.620;2023-02-01T09:10:26;23.38;;;7.85;;
75858;SDS011;64504;51.308;8.620;2023-02-01T09:12:52;21.00;;;9.02;;
75858;SDS011;64504;51.308;8.620;2023-02-01T09:15:17;12.40;;;6.10;;
75858;SDS011;64504;51.308;8.620;2023-02-01T09:17:43;14.57;;;8.50;;
75858;SDS011;64504;51.308;8.620;2023-02-01T09:22:37;9.43;;;6.03;;
75858;SDS011;64504;51.308;8.620;2023-02-01T09:25:03;10.40;;;6.45;;
75858;SDS011;64504;51.308;8.620;2023-02-01T09:27:30;7.50;;;6.53;;
75858;SDS011;64504;51.308;8.620;2023-02-01T09:29:57;13.43;;;7.22;;
75858;SDS011;64504;51.308;8.620;2023-02-01T09:32:23;9.60;;;6.22;;
75858;SDS011;64504;51.308;8.620;2023-02-01T09:34:49;12.48;;;5.78;;
75858;SDS011;64504;51.308;8.620;2023-02-01T09:37:15;18.30;;;6.97;;
75858;SDS011;64504;51.308;8.620;2023-02-01T09:39:41;14.73;;;7.07;;
75858;SDS011;64504;51.308;8.620;2023-02-01T09:42:14;7.97;;;7.05;;
75858;SDS011;64504;51.308;8.620;2023-02-01T09:45:10;14.30;;;8.05;;
75858;SDS011;64504;51.308;8.620;2023-02-01T09:48:00;16.58;;;7.68;;
75858;SDS011;64504;51.308;8.620;2023-02-01T09:50:36;6.90;;;6.15;;
75858;SDS011;64504;51.308;8.620;2023-02-01T09:56:06;16.58;;;8.40;;
75858;SDS011;64504;51.308;8.620;2023-02-01T09:58:41;15.15;;;8.85;;
75858;SDS011;64504;51.308;8.620;2023-02-01T10:01:12;12.02;;;7.50;;
75858;SDS011;64504;51.308;8.620;2023-02-01T10:03:42;8.23;;;5.93;;
75858;SDS011;64504;51.308;8.620;2023-02-01T10:06:30;11.98;;;6.60;;
75858;SDS011;64504;51.308;8.620;2023-02-01T10:11:53;14.40;;;6.25;;
75858;SDS011;64504;51.308;8.620;2023-02-01T10:15:30;14.23;;;5.60;;
75858;SDS011;64504;51.308;8.620;2023-02-01T10:22:46;16.58;;;7.72;;
75858;SDS011;64504;51.308;8.620;2023-02-01T10:25:41;10.38;;;5.60;;
75858;SDS011;64504;51.308;8.620;2023-02-01T10:28:20;8.88;;;4.35;;
75858;SDS011;64504;51.308;8.620;2023-02-01T10:30:49;8.90;;;4.55;;
75858;SDS011;64504;51.308;8.620;2023-02-01T10:33:23;16.60;;;7.97;;
75858;SDS011;64504;51.308;8.620;2023-02-01T10:38:38;11.13;;;5.60;;
75858;SDS011;64504;51.308;8.620;2023-02-01T10:41:07;16.13;;;7.80;;
75858;SDS011;64504;51.308;8.620;2023-02-01T10:43:39;8.48;;;5.32;;
75858;SDS011;64504;51.308;8.620;2023-02-01T10:46:06;12.60;;;6.97;;
75858;SDS011;64504;51.308;8.620;2023-02-01T10:48:32;30.17;;;8.90;;
75858;SDS011;64504;51.308;8.620;2023-02-01T10:53:41;7.88;;;6.05;;
75858;SDS011;64504;51.308;8.620;2023-02-01T10:56:21;9.88;;;6.40;;
75858;SDS011;64504;51.308;8.620;2023-02-01T10:59:01;19.33;;;6.03;;
75858;SDS011;64504;51.308;8.620;2023-02-01T11:01:30;12.90;;;6.55;;
75858;SDS011;64504;51.308;8.620;2023-02-01T11:04:02;20.95;;;7.80;;
75858;SDS011;64504;51.308;8.620;2023-02-01T11:11:33;13.10;;;5.85;;
75858;SDS011;64504;51.308;8.620;2023-02-01T11:16:52;10.63;;;7.43;;
75858;SDS011;64504;51.308;8.620;2023-02-01T11:19:19;12.18;;;6.57;;
75858;SDS011;64504;51.308;8.620;2023-02-01T11:21:44;17.33;;;7.65;;
75858;SDS011;64504;51.308;8.620;2023-02-01T11:26:51;10.32;;;5.50;;
75858;SDS011;64504;51.308;8.620;2023-02-01T11:29:20;10.93;;;5.75;;
75858;SDS011;64504;51.308;8.620;2023-02-01T11:31:50;7.22;;;6.47;;
75858;SDS011;64504;51.308;8.620;2023-02-01T11:34:24;16.38;;;6.53;;
75858;SDS011;64504;51.308;8.620;2023-02-01T11:36:51;6.15;;;5.55;;
75858;SDS011;64504;51.308;8.620;2023-02-01T11:39:25;12.30;;;6.57;;
75858;SDS011;64504;51.308;8.620;2023-02-01T11:42:11;22.52;;;7.22;;
75858;SDS011;64504;51.308;8.620;2023-02-01T11:44:40;13.70;;;4.97;;
75858;SDS011;64504;51.308;8.620;2023-02-01T11:47:23;20.38;;;6.72;;
75858;SDS011;64504;51.308;8.620;2023-02-01T11:49:57;8.48;;;4.55;;
75858;SDS011;64504;51.308;8.620;2023-02-01T12:00:32;9.85;;;5.13;;
75858;SDS011;64504;51.308;8.620;2023-02-01T12:03:10;20.90;;;6.38;;
75858;SDS011;64504;51.308;8.620;2023-02-01T12:06:16;13.18;;;6.15;;
75858;SDS011;64504;51.308;8.620;2023-02-01T12:23:17;12.20;;;5.50;;
75858;SDS011;64504;51.308;8.620;2023-02-01T12:39:26;23.17;;;6.47;;
75858;SDS011;64504;51.308;8.620;2023-02-01T12:49:53;22.73;;;6.35;;
75858;SDS011;64504;51.308;8.620;2023-02-01T12:52:29;16.70;;;6.82;;
75858;SDS011;64504;51.308;8.620;2023-02-01T12:55:09;15.77;;;7.00;;
75858;SDS011;64504;51.308;8.620;2023-02-01T12:57:43;9.38;;;6.18;;
75858;SDS011;64504;51.308;8.620;2023-02-01T13:06:02;15.05;;;6.78;;
75858;SDS011;64504;51.308;8.620;2023-02-01T13:11:11;13.68;;;6.00;;
75858;SDS011;64504;51.308;8.620;2023-02-01T13:16:31;9.82;;;5.20;;
75858;SDS011;64504;51.308;8.620;2023-02-01T13:19:37;7.63;;;5.35;;
75858;SDS011;64504;51.308;8.620;2023-02-01T13:22:06;8.38;;;4.78;;
75858;SDS011;64504;51.308;8.620;2023-02-01T13:24:39;7.28;;;4.65;;
75858;SDS011;64504;51.308;8.620;2023-02-01T13:27:13;4.88;;;4.47;;
75858;SDS011;64504;51.308;8.620;2023-02-01T13:29:51;4.40;;;3.63;;
75858;SDS011;64504;51.308;8.620;2023-02-01T13:45:46;7.13;;;6.00;;
75858;SDS011;64504;51.308;8.620;2023-02-01T13:48:26;12.15;;;7.25;;
75858;SDS011;64504;51.308;8.620;2023-02-01T13:50:58;13.98;;;7.28;;
75858;SDS011;64504;51.308;8.620;2023-02-01T13:53:31;14.65;;;5.32;;
75858;SDS011;64504;51.308;8.620;2023-02-01T13:55:59;10.30;;;8.35;;
75858;SDS011;64504;51.308;8.620;2023-02-01T13:58:34;18.08;;;8.35;;
75858;SDS011;64504;51.308;8.620;2023-02-01T14:03:49;14.90;;;6.95;;
75858;SDS011;64504;51.308;8.620;2023-02-01T14:17:28;9.13;;;4.43;;
75858;SDS011;64504;51.308;8.620;2023-02-01T14:19:35;7.50;;;6.72;;
75858;SDS011;64504;51.308;8.620;2023-02-01T14:22:32;7.15;;;5.47;;
75858;SDS011;64504;51.308;8.620;2023-02-01T14:25:12;10.15;;;5.60;;
75858;SDS011;64504;51.308;8.620;2023-02-01T14:27:43;11.13;;;5.50;;
75858;SDS011;64504;51.308;8.620;2023-02-01T14:30:14;6.82;;;5.70;;
75858;SDS011;64504;51.308;8.620;2023-02-01T14:32:40;8.13;;;6.40;;
75858;SDS011;64504;51.308;8.620;2023-02-01T14:35:16;5.55;;;4.78;;
75858;SDS011;64504;51.308;8.620;2023-02-01T14:37:44;9.85;;;5.82;;
75858;SDS011;64504;51.308;8.620;2023-02-01T14:42:44;8.30;;;5.22;;
75858;SDS011;64504;51.308;8.620;2023-02-01T14:47:55;15.68;;;6.45;;
75858;SDS011;64504;51.308;8.620;2023-02-01T14:50:40;15.05;;;7.15;;
75858;SDS011;64504;51.308;8.620;2023-02-01T14:55:53;9.02;;;7.13;;
75858;SDS011;64504;51.308;8.620;2023-02-01T15:04:03;18.60;;;8.70;;
75858;SDS011;64504;51.308;8.620;2023-02-01T15:06:43;11.50;;;8.85;;
75858;SDS011;64504;51.308;8.620;2023-02-01T15:09:25;20.55;;;9.05;;
75858;SDS011;64504;51.308;8.620;2023-02-01T15:11:58;11.40;;;8.73;;
75858;SDS011;64504;51.308;8.620;2023-02-01T15:14:30;13.13;;;8.05;;
75858;SDS011;64504;51.308;8.620;2023-02-01T15:16:59;12.05;;;6.55;;
75858;SDS011;64504;51.308;8.620;2023-02-01T15:19:25;12.40;;;6.78;;
75858;SDS011;64504;51.308;8.620;2023-02-01T15:21:53;10.85;;;5.55;;
75858;SDS011;64504;51.308;8.620;2023-02-01T15:24:23;12.93;;;5.82;;
75858;SDS011;64504;51.308;8.620;2023-02-01T15:26:51;7.00;;;6.35;;
75858;SDS011;64504;51.308;8.620;2023-02-01T15:29:21;23.38;;;8.57;;
75858;SDS011;64504;51.308;8.620;2023-02-01T15:31:51;12.52;;;8.07;;
75858;SDS011;64504;51.308;8.620;2023-02-01T15:34:18;9.75;;;8.57;;
75858;SDS011;64504;51.308;8.620;2023-02-01T15:36:45;17.80;;;9.65;;
75858;SDS011;64504;51.308;8.620;2023-02-01T15:39:18;15.43;;;9.00;;
75858;SDS011;64504;51.308;8.620;2023-02-01T15:44:38;11.18;;;7.65;;
75858;SDS011;64504;51.308;8.620;2023-02-01T15:47:12;18.15;;;9.60;;
75858;SDS011;64504;51.308;8.620;2023-02-01T15:52:20;20.30;;;8.27;;
75858;SDS011;64504;51.308;8.620;2023-02-01T15:54:50;18.10;;;10.13;;
75858;SDS011;64504;51.308;8.620;2023-02-01T15:57:26;29.70;;;8.93;;
75858;SDS011;64504;51.308;8.620;2023-02-01T15:59:57;17.33;;;9.23;;
75858;SDS011;64504;51.308;8.620;2023-02-01T16:05:00;12.05;;;8.25;;
75858;SDS011;64504;51.308;8.620;2023-02-01T16:07:27;16.58;;;10.13;;
75858;SDS011;64504;51.308;8.620;2023-02-01T16:09:55;18.58;;;11.18;;
75858;SDS011;64504;51.308;8.620;2023-02-01T16:12:30;22.38;;;9.85;;
75858;SDS011;64504;51.308;8.620;2023-02-01T16:14:56;20.80;;;12.57;;
75858;SDS011;64504;51.308;8.620;2023-02-01T16:17:22;14.20;;;10.02;;
75858;SDS011;64504;51.308;8.620;2023-02-01T16:19:48;23.17;;;13.75;;
75858;SDS011;64504;51.308;8.620;2023-02-01T16:22:13;20.38;;;12.35;;
75858;SDS011;64504;51.308;8.620;2023-02-01T16:24:39;20.85;;;10.98;;
75858;SDS011;64504;51.308;8.620;2023-02-01T16:27:04;24.20;;;11.43;;
75858;SDS011;64504;51.308;8.620;2023-02-01T16:29:32;25.17;;;11.93;;
75858;SDS011;64504;51.308;8.620;2023-02-01T16:31:58;11.23;;;10.15;;
75858;SDS011;64504;51.308;8.620;2023-02-01T16:34:24;24.25;;;10.23;;
75858;SDS011;64504;51.308;8.620;2023-02-01T16:36:50;30.17;;;12.10;;
75858;SDS011;64504;51.308;8.620;2023-02-01T16:39:18;35.10;;;13.35;;
75858;SDS011;64504;51.308;8.620;2023-02-01T16:41:45;16.85;;;10.30;;
75858;SDS011;64504;51.308;8.620;2023-02-01T16:44:11;19.10;;;12.95;;
75858;SDS011;64504;51.308;8.620;2023-02-01T16:46:40;24.98;;;11.02;;
75858;SDS011;64504;51.308;8.620;2023-02-01T16:49:16;25.98;;;12.27;;
75858;SDS011;64504;51.308;8.620;2023-02-01T16:51:44;26.15;;;12.88;;
75858;SDS011;64504;51.308;8.620;2023-02-01T16:54:09;36.83;;;13.32;;
75858;SDS011;64504;51.308;8.620;2023-02-01T16:56:41;25.13;;;12.15;;
75858;SDS011;64504;51.308;8.620;2023-02-01T16:59:07;19.42;;;12.43;;
75858;SDS011;64504;51.308;8.620;2023-02-01T17:01:33;22.13;;;14.35;;
75858;SDS011;64504;51.308;8.620;2023-02-01T17:04:00;16.85;;;12.25;;
75858;SDS011;64504;51.308;8.620;2023-02-01T17:06:27;17.98;;;12.32;;
75858;SDS011;64504;51.308;8.620;2023-02-01T17:08:54;11.48;;;9.73;;
75858;SDS011;64504;51.308;8.620;2023-02-01T17:11:23;22.60;;;9.63;;
75858;SDS011;64504;51.308;8.620;2023-02-01T17:13:49;17.00;;;11.27;;
75858;SDS011;64504;51.308;8.620;2023-02-01T17:18:43;13.40;;;12.05;;
75858;SDS011;64504;51.308;8.620;2023-02-01T17:21:26;22.88;;;13.02;;
75858;SDS011;64504;51.308;8.620;2023-02-01T17:23:53;19.70;;;11.80;;
75858;SDS011;64504;51.308;8.620;2023-02-01T17:26:19;13.32;;;11.00;;
75858;SDS011;64504;51.308;8.620;2023-02-01T17:28:45;19.15;;;11.60;;
75858;SDS011;64504;51.308;8.620;2023-02-01T17:31:13;19.08;;;11.98;;
75858;SDS011;64504;51.308;8.620;2023-02-01T17:33:40;17.38;;;13.32;;
75858;SDS011;64504;51.308;8.620;2023-02-01T17:36:17;12.30;;;9.60;;
75858;SDS011;64504;51.308;8.620;2023-02-01T17:38:43;20.10;;;11.13;;
75858;SDS011;64504;51.308;8.620;2023-02-01T17:41:09;12.18;;;9.80;;